Time;durP1;ratioP1;P1;durP2;ratioP2;P2;SDS_P1;SDS_P2;PMS_P1;PMS_P2;Temp;Humidity;BMP_temperature;BMP_pressure;BME280_temperature;BME280_humidity;BME280_pressure;Samples;Min_cycle;Max_cycle;Signal;HPM_P1;HPM_P2
2022/07/27 00:00:18;;;;;;;4.70;1.10;;;15.50;74.60;;;;;;4993555;28;20117;-77
2022/07/27 00:02:43;;;;;;;7.20;1.33;;;15.40;73.70;;;;;;4991911;28;20048;-77
2022/07/27 00:05:09;;;;;;;1.35;0.70;;;15.40;73.10;;;;;;4993661;28;20038;-77
2022/07/27 00:07:34;;;;;;;2.65;0.93;;;15.30;73.00;;;;;;4975634;28;20293;-77
2022/07/27 00:10:00;;;;;;;3.30;0.93;;;15.20;73.30;;;;;;5006053;28;20034;-77
2022/07/27 00:12:26;;;;;;;6.00;1.13;;;15.20;73.00;;;;;;4990587;28;20119;-77
2022/07/27 00:14:51;;;;;;;7.13;1.55;;;15.10;75.40;;;;;;5006602;28;20030;-77
2022/07/27 00:17:22;;;;;;;6.43;1.08;;;15.10;73.30;;;;;;5004634;28;20031;-77
2022/07/27 00:19:48;;;;;;;3.40;0.82;;;15.10;73.90;;;;;;5023605;28;20486;-77
2022/07/27 00:22:14;;;;;;;1.52;0.73;;;15.00;74.80;;;;;;5015121;28;20117;-77
2022/07/27 00:24:40;;;;;;;2.50;0.90;;;15.00;73.80;;;;;;5023867;28;20112;-77
2022/07/27 00:27:06;;;;;;;4.63;0.93;;;15.00;75.20;;;;;;5007639;28;20046;-77
2022/07/27 00:29:31;;;;;;;5.10;0.88;;;14.90;73.80;;;;;;5007043;28;20022;-77
2022/07/27 00:31:57;;;;;;;3.45;1.00;;;14.80;76.80;;;;;;5024769;28;20097;-77
2022/07/27 00:34:23;;;;;;;5.78;1.48;;;14.80;74.90;;;;;;4975159;28;20129;-77
2022/07/27 00:36:48;;;;;;;4.65;1.17;;;14.80;77.80;;;;;;5009288;28;20053;-77
2022/07/27 00:39:14;;;;;;;2.25;0.90;;;14.70;77.00;;;;;;5003904;28;20100;-77
2022/07/27 00:41:39;;;;;;;6.15;1.10;;;14.80;77.50;;;;;;5004720;28;20092;-77
2022/07/27 00:44:05;;;;;;;4.72;1.08;;;14.80;76.80;;;;;;5023392;28;20037;-77
2022/07/27 00:46:31;;;;;;;4.15;1.10;;;14.70;77.30;;;;;;5008753;28;20042;-77
2022/07/27 00:48:57;;;;;;;3.85;1.42;;;14.60;75.60;;;;;;5009794;28;20046;-77
2022/07/27 00:51:23;;;;;;;8.40;1.75;;;14.60;76.00;;;;;;4990248;28;20044;-77
2022/07/27 00:53:49;;;;;;;2.85;1.30;;;14.60;76.70;;;;;;5009839;28;20025;-77
2022/07/27 00:56:14;;;;;;;4.18;1.52;;;14.50;75.20;;;;;;5003705;28;20030;-76
2022/07/27 00:58:40;;;;;;;5.38;1.33;;;14.50;76.90;;;;;;5009751;28;20029;-77
2022/07/27 01:01:06;;;;;;;4.30;1.20;;;14.60;80.00;;;;;;4992780;28;20029;-77
2022/07/27 01:03:31;;;;;;;5.32;1.05;;;14.60;77.90;;;;;;4980009;28;20097;-77
2022/07/27 01:05:57;;;;;;;5.82;1.17;;;14.50;76.40;;;;;;4979948;28;20583;-77
2022/07/27 01:08:23;;;;;;;3.08;1.05;;;14.50;78.10;;;;;;5012179;28;20038;-77
2022/07/27 01:10:48;;;;;;;3.15;1.20;;;14.40;79.30;;;;;;4999014;28;22239;-77
2022/07/27 01:13:15;;;;;;;6.70;1.15;;;14.50;79.80;;;;;;4996945;28;20037;-77
2022/07/27 01:15:41;;;;;;;7.15;1.35;;;14.60;78.90;;;;;;5010166;28;20030;-77
2022/07/27 01:18:26;;;;;;;2.85;1.20;;;14.60;76.90;;;;;;5026269;28;20422;-77
2022/07/27 01:20:52;;;;;;;1.25;0.68;;;14.40;77.50;;;;;;5008808;28;20029;-77
2022/07/27 01:23:17;;;;;;;3.97;1.42;;;14.30;80.10;;;;;;5026453;28;20041;-77
2022/07/27 01:25:43;;;;;;;3.22;1.08;;;14.30;78.10;;;;;;5012425;28;20030;-77
2022/07/27 01:28:09;;;;;;;6.85;1.48;;;14.20;82.30;;;;;;5008943;28;20385;-77
2022/07/27 01:30:34;;;;;;;3.90;1.15;;;14.20;83.00;;;;;;4993792;28;20242;-76
2022/07/27 01:33:04;;;;;;;3.72;1.38;;;14.20;82.70;;;;;;4991672;28;20030;-77
2022/07/27 01:35:29;;;;;;;3.10;1.20;;;14.20;84.50;;;;;;5010905;28;20038;-77
2022/07/27 01:37:55;;;;;;;2.85;1.27;;;14.10;83.30;;;;;;5009571;28;20092;-76
2022/07/27 01:40:21;;;;;;;6.68;1.70;;;14.10;85.50;;;;;;5007850;28;20045;-76
2022/07/27 01:42:47;;;;;;;4.43;2.08;;;14.10;84.20;;;;;;4993468;28;20117;-77
2022/07/27 01:45:12;;;;;;;2.35;1.08;;;14.10;83.70;;;;;;5008078;28;20549;-76
2022/07/27 01:47:38;;;;;;;3.40;1.08;;;14.20;87.40;;;;;;5015522;28;20033;-77
2022/07/27 01:50:04;;;;;;;5.15;1.33;;;14.20;89.40;;;;;;5012048;28;20128;-77
2022/07/27 01:52:29;;;;;;;7.40;1.00;;;14.20;85.80;;;;;;5013801;28;20096;-77
2022/07/27 01:54:55;;;;;;;4.90;1.10;;;14.20;87.00;;;;;;5013263;28;20030;-77
2022/07/27 01:57:20;;;;;;;2.28;1.30;;;14.10;86.40;;;;;;4995566;28;20482;-76
2022/07/27 01:59:46;;;;;;;6.20;1.23;;;14.00;89.10;;;;;;4991564;28;20085;-77
2022/07/27 02:02:14;;;;;;;7.43;1.83;;;13.90;89.90;;;;;;5012158;28;20033;-77
2022/07/27 02:04:40;;;;;;;5.00;1.70;;;13.80;85.20;;;;;;4996882;28;20030;-76
2022/07/27 02:07:05;;;;;;;4.18;2.15;;;13.70;89.00;;;;;;5030473;28;20082;-77
2022/07/27 02:09:31;;;;;;;8.70;1.92;;;13.60;87.50;;;;;;4998123;28;20033;-77
2022/07/27 02:14:40;;;;;;;3.60;2.22;;;13.70;91.10;;;;;;5011180;28;20392;-76
2022/07/27 02:17:06;;;;;;;2.92;1.60;;;13.70;91.70;;;;;;5009848;28;20122;-77
2022/07/27 02:19:31;;;;;;;5.50;2.95;;;13.70;90.40;;;;;;4993130;28;20061;-77
2022/07/27 02:21:57;;;;;;;5.70;2.40;;;13.80;91.80;;;;;;5012244;28;20393;-77
2022/07/27 02:24:22;;;;;;;6.65;2.60;;;13.70;92.00;;;;;;4990929;28;20034;-76
2022/07/27 02:26:48;;;;;;;5.93;2.58;;;13.60;93.10;;;;;;5026432;28;20489;-76
2022/07/27 02:29:13;;;;;;;6.50;3.25;;;13.50;93.00;;;;;;5006467;28;20393;-76
2022/07/27 02:31:39;;;;;;;7.63;2.47;;;13.50;93.10;;;;;;5006823;28;20385;-76
2022/07/27 02:34:04;;;;;;;7.53;2.88;;;13.50;92.40;;;;;;5009295;28;20038;-76
2022/07/27 02:36:30;;;;;;;4.70;2.42;;;13.50;93.30;;;;;;5012365;28;20433;-76
2022/07/27 02:38:56;;;;;;;11.50;4.10;;;13.40;93.70;;;;;;4994164;28;20545;-76
2022/07/27 02:41:22;;;;;;;8.48;2.42;;;13.30;93.00;;;;;;4993110;28;20636;-76
2022/07/27 02:43:47;;;;;;;9.57;2.20;;;13.30;94.30;;;;;;5005799;28;20175;-76
2022/07/27 02:46:13;;;;;;;7.68;2.72;;;13.40;93.70;;;;;;5026589;28;20113;-76
2022/07/27 02:48:38;;;;;;;9.25;2.88;;;13.10;95.10;;;;;;5026278;28;20022;-76
2022/07/27 02:51:04;;;;;;;7.20;2.42;;;13.00;95.60;;;;;;5009771;28;20451;-76
2022/07/27 02:53:29;;;;;;;8.75;2.70;;;13.00;95.70;;;;;;5010315;28;20034;-76
2022/07/27 02:55:55;;;;;;;6.90;2.70;;;12.90;96.40;;;;;;5026154;28;20037;-76
2022/07/27 02:58:21;;;;;;;6.70;3.33;;;12.80;96.40;;;;;;4997674;28;20034;-75
2022/07/27 03:00:46;;;;;;;8.95;2.72;;;13.00;96.40;;;;;;4990850;28;20519;-76
2022/07/27 03:03:12;;;;;;;8.32;2.30;;;13.00;95.70;;;;;;5022692;28;20038;-76
2022/07/27 03:05:38;;;;;;;6.72;2.63;;;12.90;95.40;;;;;;5023490;28;20042;-76
2022/07/27 03:08:04;;;;;;;6.30;2.35;;;13.00;92.70;;;;;;5008089;28;20477;-77
2022/07/27 03:10:29;;;;;;;5.90;2.50;;;13.00;95.80;;;;;;5012705;28;20036;-76
2022/07/27 03:12:55;;;;;;;5.63;3.05;;;12.80;95.60;;;;;;4994671;28;20026;-75
2022/07/27 03:15:21;;;;;;;5.40;2.78;;;12.70;97.00;;;;;;5010992;28;20041;-76
2022/07/27 03:17:46;;;;;;;6.85;2.90;;;12.60;97.60;;;;;;5010464;28;20036;-76
2022/07/27 03:20:12;;;;;;;4.07;2.88;;;12.50;98.00;;;;;;4994111;28;20061;-76
2022/07/27 03:22:37;;;;;;;7.53;2.38;;;12.60;97.40;;;;;;4977171;28;20022;-76
2022/07/27 03:25:03;;;;;;;6.97;2.42;;;12.60;97.60;;;;;;5024280;28;20030;-75
2022/07/27 03:27:29;;;;;;;7.28;2.65;;;12.60;94.00;;;;;;5009299;28;20041;-76
2022/07/27 03:29:55;;;;;;;7.07;2.40;;;12.90;92.80;;;;;;5007452;28;20041;-77
2022/07/27 03:32:21;;;;;;;7.30;2.63;;;13.00;92.20;;;;;;5007137;28;20123;-75
2022/07/27 03:34:46;;;;;;;9.85;3.47;;;12.80;95.30;;;;;;5009365;28;20640;-75
2022/07/27 03:37:12;;;;;;;7.70;2.63;;;12.60;94.40;;;;;;5004227;28;20470;-76
2022/07/27 03:39:37;;;;;;;7.50;2.90;;;12.70;93.20;;;;;;5007802;28;20510;-75
2022/07/27 03:42:03;;;;;;;5.40;2.80;;;12.60;96.20;;;;;;5007421;28;20042;-76
2022/07/27 03:44:29;;;;;;;5.53;2.83;;;12.50;97.10;;;;;;5009805;28;20099;-76
2022/07/27 03:46:54;;;;;;;10.25;3.33;;;12.40;98.10;;;;;;5007689;28;20390;-75
2022/07/27 03:49:20;;;;;;;5.60;3.03;;;12.30;99.00;;;;;;5006380;28;20053;-76
2022/07/27 03:51:45;;;;;;;7.55;3.00;;;12.20;99.60;;;;;;5024565;28;20392;-76
2022/07/27 03:54:11;;;;;;;6.78;3.17;;;12.20;99.90;;;;;;5011388;28;20511;-76
2022/07/27 03:56:37;;;;;;;10.27;3.42;;;12.30;97.60;;;;;;5006726;28;20038;-76
2022/07/27 03:59:02;;;;;;;10.20;3.53;;;12.20;99.60;;;;;;5006332;28;20073;-76
2022/07/27 04:01:28;;;;;;;5.70;2.97;;;12.20;97.50;;;;;;5009136;28;20112;-76
2022/07/27 04:03:53;;;;;;;6.65;3.10;;;12.30;99.70;;;;;;4991857;28;20037;-76
2022/07/27 04:06:19;;;;;;;8.68;3.03;;;12.30;99.90;;;;;;4992126;28;20119;-76
2022/07/27 04:08:44;;;;;;;8.57;2.95;;;12.20;99.90;;;;;;4989008;28;20393;-75
2022/07/27 04:11:10;;;;;;;10.93;3.58;;;12.20;99.90;;;;;;5022314;28;20083;-76
2022/07/27 04:13:35;;;;;;;4.97;3.50;;;12.20;99.90;;;;;;4988719;28;20053;-75
2022/07/27 04:16:01;;;;;;;6.80;3.35;;;12.30;99.40;;;;;;5010954;28;20056;-75
2022/07/27 04:18:27;;;;;;;5.85;3.00;;;12.30;99.90;;;;;;4992103;28;20061;-75
2022/07/27 04:20:52;;;;;;;9.93;3.60;;;12.30;99.90;;;;;;4990653;28;20088;-75
2022/07/27 04:23:18;;;;;;;4.03;3.50;;;12.40;99.90;;;;;;5012660;28;20034;-75
2022/07/27 04:25:43;;;;;;;10.02;3.78;;;12.30;99.20;;;;;;4975456;28;20034;-78
2022/07/27 04:28:09;;;;;;;8.32;3.40;;;12.30;99.90;;;;;;5024942;28;20041;-78
2022/07/27 04:30:34;;;;;;;10.15;4.25;;;12.40;99.10;;;;;;4993884;28;20032;-75
2022/07/27 04:33:00;;;;;;;8.55;4.18;;;12.60;99.90;;;;;;5009882;28;20131;-75
2022/07/27 04:35:25;;;;;;;9.57;5.10;;;12.60;99.90;;;;;;5010863;28;20358;-75
2022/07/27 04:37:51;;;;;;;6.95;3.47;;;12.70;99.30;;;;;;5010443;28;20030;-75
2022/07/27 04:40:16;;;;;;;12.82;4.07;;;12.80;99.90;;;;;;4995078;28;20041;-75
2022/07/27 04:42:42;;;;;;;9.00;3.75;;;13.00;99.90;;;;;;4990012;28;20450;-75
2022/07/27 04:45:08;;;;;;;7.55;4.38;;;13.00;99.80;;;;;;5028380;28;20026;-75
2022/07/27 04:47:33;;;;;;;7.18;3.13;;;13.10;98.70;;;;;;5011393;28;20072;-76
2022/07/27 04:49:59;;;;;;;9.23;3.47;;;13.30;99.50;;;;;;5011753;28;20262;-75
2022/07/27 04:52:24;;;;;;;6.13;3.15;;;13.50;99.80;;;;;;5018967;28;20026;-76
2022/07/27 04:54:53;;;;;;;5.20;2.92;;;13.60;97.50;;;;;;5014630;28;20297;-75
2022/07/27 04:57:19;;;;;;;7.28;3.22;;;13.70;96.40;;;;;;4992015;28;20109;-75
2022/07/27 04:59:45;;;;;;;5.90;3.00;;;13.80;95.40;;;;;;5009459;28;20040;-75
2022/07/27 05:02:10;;;;;;;5.65;2.97;;;14.00;94.70;;;;;;4993935;28;20038;-76
2022/07/27 05:04:36;;;;;;;11.05;3.80;;;14.10;95.40;;;;;;5011707;28;20112;-76
2022/07/27 05:07:01;;;;;;;8.10;3.00;;;14.30;96.10;;;;;;5009522;28;20058;-75
2022/07/27 05:09:27;;;;;;;10.82;2.97;;;14.40;96.10;;;;;;5010458;28;20037;-76
2022/07/27 05:11:52;;;;;;;7.13;3.08;;;14.60;95.90;;;;;;5007528;28;20037;-75
2022/07/27 05:14:19;;;;;;;6.47;2.90;;;14.80;95.70;;;;;;5007386;28;20123;-75
2022/07/27 05:16:44;;;;;;;11.60;3.50;;;14.90;96.00;;;;;;5009538;28;20514;-75
2022/07/27 05:19:11;;;;;;;3.90;2.40;;;15.10;96.00;;;;;;5009680;28;20035;-75
2022/07/27 05:21:36;;;;;;;7.82;2.22;;;15.20;96.10;;;;;;5014715;28;20453;-76
2022/07/27 05:24:02;;;;;;;7.88;3.42;;;15.40;95.90;;;;;;5010678;28;20164;-76
2022/07/27 05:26:28;;;;;;;9.70;2.65;;;15.60;96.10;;;;;;4994281;28;20117;-75
2022/07/27 05:28:53;;;;;;;12.48;2.83;;;15.80;96.70;;;;;;5011556;28;20052;-76
2022/07/27 05:31:19;;;;;;;8.32;2.60;;;16.00;96.50;;;;;;5009800;28;20034;-75
2022/07/27 05:33:44;;;;;;;8.98;2.25;;;16.20;96.50;;;;;;5013184;28;20029;-75
2022/07/27 05:36:10;;;;;;;6.47;2.20;;;16.40;96.40;;;;;;5028043;28;20345;-75
2022/07/27 05:38:38;;;;;;;9.75;2.25;;;16.60;96.30;;;;;;4995189;28;20017;-76
2022/07/27 05:41:06;;;;;;;7.93;2.30;;;16.80;96.00;;;;;;4994170;28;20495;-76
2022/07/27 05:43:31;;;;;;;7.97;2.50;;;17.00;95.70;;;;;;5013532;28;20030;-75
2022/07/27 05:45:57;;;;;;;4.03;2.17;;;17.20;95.80;;;;;;4993366;28;20557;-75
2022/07/27 05:48:22;;;;;;;5.72;2.25;;;17.40;95.70;;;;;;5023370;28;20076;-75
2022/07/27 05:50:48;;;;;;;7.25;1.98;;;17.60;95.30;;;;;;5007104;28;20044;-75
2022/07/27 05:53:13;;;;;;;6.80;1.88;;;17.80;95.20;;;;;;5009381;28;20062;-76
2022/07/27 05:55:39;;;;;;;2.63;1.27;;;18.00;94.80;;;;;;4992262;28;20057;-74
2022/07/27 05:58:05;;;;;;;8.02;1.45;;;18.20;93.30;;;;;;5012302;28;20026;-76
2022/07/27 06:00:30;;;;;;;7.00;1.63;;;18.40;94.30;;;;;;5015524;28;20057;-75
2022/07/27 06:02:56;;;;;;;9.20;1.33;;;18.50;94.00;;;;;;5009570;28;20028;-76
2022/07/27 06:05:21;;;;;;;2.65;1.05;;;18.70;93.10;;;;;;5026051;28;20030;-76
2022/07/27 06:07:59;;;;;;;6.28;1.20;;;19.00;92.80;;;;;;4992541;28;20925;-75
2022/07/27 06:10:26;;;;;;;9.40;2.10;;;19.20;92.40;;;;;;5006547;28;20037;-77
2022/07/27 06:12:52;;;;;;;8.45;1.42;;;19.30;92.30;;;;;;5009712;28;20037;-75
2022/07/27 06:15:18;;;;;;;4.22;0.80;;;19.20;91.50;;;;;;5026464;28;20034;-78
2022/07/27 06:17:45;;;;;;;4.25;1.08;;;19.40;91.60;;;;;;5011217;28;20029;-78
2022/07/27 06:20:11;;;;;;;5.53;0.98;;;19.70;90.90;;;;;;4991199;28;20034;-78
2022/07/27 06:22:46;;;;;;;6.25;1.27;;;19.90;90.40;;;;;;5009282;28;20033;-78
2022/07/27 06:25:12;;;;;;;5.25;1.00;;;19.90;89.80;;;;;;4994014;28;20030;-78
2022/07/27 06:27:38;;;;;;;7.88;1.17;;;20.10;90.10;;;;;;5012400;28;20033;-76
2022/07/27 06:30:04;;;;;;;1.75;0.80;;;20.40;85.90;;;;;;4992194;28;20030;-78
2022/07/27 06:32:29;;;;;;;2.78;0.90;;;20.40;86.00;;;;;;5009606;28;20029;-78
2022/07/27 06:34:55;;;;;;;6.60;1.13;;;20.50;86.60;;;;;;5025208;28;20449;-78
2022/07/27 06:37:21;;;;;;;8.10;1.20;;;20.70;86.00;;;;;;4990399;28;20037;-78
2022/07/27 06:39:46;;;;;;;7.93;1.45;;;20.80;86.20;;;;;;4992283;28;20034;-78
2022/07/27 06:42:15;;;;;;;7.82;1.50;;;20.90;84.80;;;;;;5012863;28;20112;-78
2022/07/27 06:44:40;;;;;;;4.95;1.15;;;21.00;83.40;;;;;;5008459;28;20065;-78
2022/07/27 06:47:06;;;;;;;3.00;0.80;;;21.40;82.90;;;;;;5011711;28;20049;-78
2022/07/27 06:49:32;;;;;;;6.53;1.35;;;21.50;82.10;;;;;;4995768;28;20042;-76
2022/07/27 06:51:57;;;;;;;4.40;1.20;;;21.60;81.40;;;;;;4993051;28;20041;-76
2022/07/27 06:54:23;;;;;;;8.43;1.13;;;21.60;79.10;;;;;;5005069;28;20026;-76
2022/07/27 06:56:49;;;;;;;6.85;1.27;;;21.60;76.70;;;;;;4987873;28;20027;-76
2022/07/27 06:59:14;;;;;;;6.20;1.33;;;21.80;77.70;;;;;;5010599;28;20485;-76
2022/07/27 07:01:40;;;;;;;7.68;1.60;;;22.10;77.70;;;;;;5006802;28;20493;-76
2022/07/27 07:04:05;;;;;;;6.13;1.48;;;22.10;77.70;;;;;;4994213;28;20691;-76
2022/07/27 07:06:31;;;;;;;6.18;1.27;;;22.20;77.20;;;;;;4981794;28;20048;-76
2022/07/27 07:08:57;;;;;;;4.65;1.40;;;22.50;77.00;;;;;;5008738;28;20390;-76
2022/07/27 07:11:22;;;;;;;5.40;1.30;;;22.60;75.90;;;;;;4976700;28;20512;-78
2022/07/27 07:13:48;;;;;;;7.05;1.27;;;22.70;76.80;;;;;;5009432;28;20030;-77
2022/07/27 07:16:14;;;;;;;4.13;0.82;;;22.90;74.90;;;;;;4989038;28;20045;-77
2022/07/27 07:18:39;;;;;;;5.85;0.95;;;23.20;74.70;;;;;;5008813;28;20030;-77
2022/07/27 07:21:05;;;;;;;6.93;1.08;;;23.40;74.00;;;;;;4993442;28;20034;-76
2022/07/27 07:23:30;;;;;;;1.92;0.80;;;23.60;71.90;;;;;;4991100;28;20065;-77
2022/07/27 07:25:56;;;;;;;2.97;0.90;;;23.80;71.90;;;;;;5023703;28;20034;-76
2022/07/27 07:28:22;;;;;;;2.08;0.80;;;24.00;71.40;;;;;;4989363;28;20042;-77
2022/07/27 07:30:47;;;;;;;4.30;1.13;;;24.20;70.60;;;;;;4989137;28;20556;-77
2022/07/27 07:33:13;;;;;;;1.55;0.73;;;24.40;69.20;;;;;;4975861;28;20038;-77
2022/07/27 07:35:39;;;;;;;2.13;0.95;;;24.70;69.70;;;;;;5008992;28;20061;-77
2022/07/27 07:38:04;;;;;;;3.58;0.60;;;24.90;67.50;;;;;;5007496;28;20378;-77
2022/07/27 07:40:30;;;;;;;2.45;0.60;;;24.90;65.20;;;;;;5010344;28;20444;-77
2022/07/27 07:42:58;;;;;;;4.10;0.68;;;25.50;63.80;;;;;;5011939;28;20085;-77
2022/07/27 07:45:25;;;;;;;2.80;0.57;;;25.50;62.40;;;;;;4989680;28;20030;-77
2022/07/27 07:47:51;;;;;;;5.88;0.77;;;25.50;61.20;;;;;;4975913;28;20021;-78
2022/07/27 07:50:16;;;;;;;4.88;0.90;;;25.40;60.50;;;;;;5006564;28;20088;-77
2022/07/27 07:52:42;;;;;;;4.00;0.60;;;25.10;60.50;;;;;;5014812;28;20109;-77
2022/07/27 07:55:08;;;;;;;2.33;0.60;;;25.20;61.90;;;;;;4992738;28;20022;-78
2022/07/27 07:57:34;;;;;;;3.30;0.73;;;25.40;63.30;;;;;;5006248;28;20452;-77
2022/07/27 07:59:59;;;;;;;4.78;1.02;;;25.50;61.00;;;;;;4988994;28;20022;-77
2022/07/27 08:02:25;;;;;;;1.73;0.90;;;25.50;60.20;;;;;;4972988;28;20037;-78
2022/07/27 08:04:50;;;;;;;6.60;1.38;;;25.60;60.50;;;;;;5007875;28;20423;-77
2022/07/27 08:07:16;;;;;;;4.88;0.88;;;25.80;59.70;;;;;;4992556;28;20033;-78
2022/07/27 08:09:43;;;;;;;3.97;1.52;;;25.80;59.00;;;;;;4993697;28;20116;-78
2022/07/27 08:12:08;;;;;;;3.53;0.80;;;25.70;59.10;;;;;;5015055;28;20034;-78
2022/07/27 08:14:34;;;;;;;2.22;0.68;;;25.60;59.40;;;;;;5008842;28;20034;-78
2022/07/27 08:17:00;;;;;;;3.25;0.93;;;25.50;58.90;;;;;;4991854;28;20026;-78
2022/07/27 08:19:25;;;;;;;3.95;0.88;;;25.40;57.00;;;;;;5007643;28;20164;-78
2022/07/27 08:21:51;;;;;;;3.60;1.10;;;25.20;58.70;;;;;;5024507;28;20119;-78
2022/07/27 08:24:17;;;;;;;2.03;1.13;;;25.20;58.80;;;;;;5014748;28;20034;-78
2022/07/27 08:26:42;;;;;;;3.88;1.42;;;25.30;59.10;;;;;;5007898;28;20046;-79
2022/07/27 08:29:08;;;;;;;7.93;1.60;;;25.50;58.70;;;;;;5010525;28;20466;-79
2022/07/27 08:31:34;;;;;;;6.47;1.17;;;25.90;57.40;;;;;;4971697;28;20053;-78
2022/07/27 08:33:59;;;;;;;3.38;1.30;;;26.00;58.30;;;;;;5007496;28;20041;-79
2022/07/27 08:36:25;;;;;;;1.98;0.95;;;26.00;58.40;;;;;;4987967;28;20091;-79
2022/07/27 08:38:50;;;;;;;5.40;1.20;;;26.00;58.10;;;;;;5007381;28;20038;-79
2022/07/27 08:41:16;;;;;;;4.13;1.50;;;26.00;57.90;;;;;;4990937;28;20034;-79
2022/07/27 08:43:42;;;;;;;2.80;1.30;;;25.80;57.60;;;;;;4993146;28;20040;-79
2022/07/27 08:46:08;;;;;;;5.15;1.30;;;25.70;57.20;;;;;;5022957;28;20407;-79
2022/07/27 08:48:34;;;;;;;2.70;1.42;;;25.60;57.20;;;;;;5007421;28;20034;-79
2022/07/27 08:51:00;;;;;;;4.65;1.23;;;25.60;56.90;;;;;;5006051;28;20056;-79
2022/07/27 08:53:25;;;;;;;1.20;0.80;;;25.50;57.50;;;;;;5026316;28;20030;-79
2022/07/27 08:55:51;;;;;;;1.88;1.00;;;25.60;58.40;;;;;;5023331;28;20187;-79
2022/07/27 08:58:17;;;;;;;1.73;0.60;;;25.90;58.30;;;;;;4986836;28;20182;-79
2022/07/27 09:00:47;;;;;;;3.50;1.00;;;26.20;57.60;;;;;;4995777;28;20036;-80
2022/07/27 09:03:13;;;;;;;7.28;0.98;;;26.40;57.60;;;;;;5005772;28;20048;-79
2022/07/27 09:05:42;;;;;;;6.70;1.40;;;27.00;55.10;;;;;;4990425;28;20038;-79
2022/07/27 09:08:12;;;;;;;1.38;0.90;;;27.30;54.20;;;;;;4989855;28;20095;-79
2022/07/27 09:10:37;;;;;;;1.85;0.80;;;27.60;53.20;;;;;;4991355;28;20088;-79
2022/07/27 09:13:20;;;;;;;2.50;0.80;;;27.40;52.60;;;;;;4996635;28;20029;-79
2022/07/27 09:16:00;;;;;;;4.88;0.85;;;27.40;53.50;;;;;;4995544;28;20033;-79
2022/07/27 09:18:28;;;;;;;4.18;1.05;;;27.40;53.00;;;;;;4988800;28;20517;-79
2022/07/27 09:21:09;;;;;;;3.50;0.80;;;27.50;53.30;;;;;;5008516;28;20041;-79
2022/07/27 09:23:35;;;;;;;4.60;1.10;;;27.80;52.00;;;;;;5014323;28;20025;-79
2022/07/27 09:26:10;;;;;;;1.25;0.65;;;28.10;50.70;;;;;;4987327;28;20038;-79
2022/07/27 09:28:35;;;;;;;1.55;0.90;;;28.20;50.50;;;;;;5030826;28;20034;-79
2022/07/27 09:31:12;;;;;;;4.55;1.00;;;28.10;50.60;;;;;;4978357;28;20029;-79
2022/07/27 09:34:07;;;;;;;4.35;1.13;;;28.10;49.50;;;;;;4999428;28;20072;-80
2022/07/27 09:36:33;;;;;;;2.38;0.90;;;27.80;48.90;;;;;;5018116;28;20121;-79
2022/07/27 09:39:02;;;;;;;3.65;1.10;;;27.60;48.70;;;;;;5025648;28;20053;-79
2022/07/27 09:41:48;;;;;;;2.47;0.90;;;27.50;49.10;;;;;;4976151;28;20030;-80
2022/07/27 09:44:14;;;;;;;2.50;1.00;;;27.40;49.40;;;;;;5008232;28;20069;-80
2022/07/27 09:46:41;;;;;;;1.80;1.00;;;27.40;49.80;;;;;;4991665;28;20160;-80
2022/07/27 09:49:28;;;;;;;4.20;0.82;;;27.30;50.40;;;;;;4992315;28;20041;-80
2022/07/27 09:51:57;;;;;;;2.25;1.27;;;27.40;50.00;;;;;;5008837;28;20151;-80
2022/07/27 09:54:23;;;;;;;3.30;0.63;;;27.30;50.80;;;;;;5024080;28;20045;-79
2022/07/27 09:57:01;;;;;;;2.05;0.88;;;27.40;49.50;;;;;;5012519;28;20037;-80
2022/07/27 09:59:27;;;;;;;1.65;0.70;;;27.60;50.30;;;;;;4994806;28;20037;-80
2022/07/27 10:01:54;;;;;;;2.08;0.60;;;27.80;50.50;;;;;;5011338;28;20030;-80
2022/07/27 10:04:19;;;;;;;3.80;0.90;;;27.90;49.60;;;;;;4978530;28;20421;-80
2022/07/27 10:06:45;;;;;;;1.42;0.63;;;28.20;47.10;;;;;;4992114;28;20034;-80
2022/07/27 10:09:10;;;;;;;2.40;0.82;;;28.20;47.10;;;;;;5007486;28;20104;-80
2022/07/27 10:11:39;;;;;;;4.88;0.98;;;28.30;47.10;;;;;;5010070;28;20056;-81
2022/07/27 10:14:05;;;;;;;3.45;0.80;;;28.40;48.10;;;;;;5011910;28;20041;-79
2022/07/27 10:16:31;;;;;;;4.13;1.10;;;28.40;48.20;;;;;;5010124;28;20599;-79
2022/07/27 10:19:14;;;;;;;0.70;0.60;;;28.50;47.40;;;;;;5012344;28;20127;-81
2022/07/27 10:21:45;;;;;;;3.75;1.08;;;28.50;49.10;;;;;;4988440;28;20120;-80
2022/07/27 10:24:21;;;;;;;3.92;1.50;;;28.80;48.90;;;;;;4992083;28;20048;-80
2022/07/27 10:26:47;;;;;;;5.32;0.98;;;28.70;46.90;;;;;;5010247;28;20557;-81
2022/07/27 10:29:12;;;;;;;3.25;1.33;;;28.70;48.10;;;;;;5031282;28;20044;-81
2022/07/27 10:31:52;;;;;;;4.47;0.93;;;28.60;47.40;;;;;;5013233;28;20500;-81
2022/07/27 10:34:31;;;;;;;2.60;0.95;;;28.60;47.90;;;;;;5029534;28;20513;-81
2022/07/27 10:36:56;;;;;;;2.88;1.25;;;28.70;47.90;;;;;;4992795;28;20030;-81
2022/07/27 10:39:28;;;;;;;4.28;0.70;;;28.70;47.80;;;;;;5011517;28;20045;-81
2022/07/27 10:42:14;;;;;;;3.25;0.80;;;28.70;47.90;;;;;;5010886;28;20118;-81
2022/07/27 10:44:51;;;;;;;3.58;0.93;;;28.90;47.50;;;;;;5027513;28;20146;-81
2022/07/27 10:47:30;;;;;;;2.00;0.80;;;29.10;46.40;;;;;;5005020;28;20513;-81
2022/07/27 10:50:18;;;;;;;2.80;0.80;;;29.30;45.90;;;;;;4989489;28;20042;-82
2022/07/27 10:52:50;;;;;;;4.13;0.65;;;29.60;45.60;;;;;;4993294;28;20069;-82
2022/07/27 10:55:31;;;;;;;4.25;1.00;;;29.60;44.50;;;;;;5005404;28;20129;-82
2022/07/27 10:58:17;;;;;;;2.15;0.60;;;29.50;45.20;;;;;;5004963;28;20468;-82
2022/07/27 11:00:49;;;;;;;4.45;0.70;;;29.40;46.70;;;;;;5009946;28;20079;-82
2022/07/27 11:03:24;;;;;;;3.70;0.70;;;29.50;46.20;;;;;;5009403;28;20034;-82
2022/07/27 11:05:56;;;;;;;5.45;0.90;;;29.50;45.50;;;;;;4989807;28;20084;-82
2022/07/27 11:08:26;;;;;;;4.05;0.55;;;29.70;45.10;;;;;;5016453;28;20526;-82
2022/07/27 11:10:51;;;;;;;1.50;0.70;;;29.80;44.80;;;;;;5006519;28;20033;-82
2022/07/27 11:13:18;;;;;;;4.18;0.80;;;30.00;45.50;;;;;;4992772;28;20485;-82
2022/07/27 11:16:10;;;;;;;3.65;0.60;;;30.00;45.80;;;;;;4973209;28;20243;-82
2022/07/27 11:18:37;;;;;;;4.07;1.00;;;30.10;44.70;;;;;;5003325;28;20038;-83
2022/07/27 11:21:20;;;;;;;4.50;0.65;;;30.00;45.70;;;;;;4994016;28;20378;-82
2022/07/27 11:23:47;;;;;;;3.78;0.77;;;30.10;44.40;;;;;;4993034;28;20060;-83
2022/07/27 11:26:13;;;;;;;2.08;0.50;;;30.10;42.10;;;;;;4987551;28;20041;-83
2022/07/27 11:28:39;;;;;;;2.88;0.77;;;30.00;42.50;;;;;;5006629;28;20034;-83
2022/07/27 11:31:06;;;;;;;4.63;0.55;;;30.00;41.60;;;;;;4992677;28;20084;-83
2022/07/27 11:33:31;;;;;;;5.13;1.08;;;30.00;42.90;;;;;;4995026;28;20028;-83
2022/07/27 11:35:59;;;;;;;2.08;0.93;;;30.30;43.60;;;;;;4991936;28;20398;-83
2022/07/27 11:38:24;;;;;;;2.15;0.70;;;30.50;43.00;;;;;;4994159;28;20118;-84
2022/07/27 11:40:51;;;;;;;2.08;0.57;;;30.90;41.30;;;;;;4992776;28;20453;-85
2022/07/27 11:43:31;;;;;;;3.08;0.70;;;31.00;40.90;;;;;;4993793;28;20049;-84
2022/07/27 11:46:18;;;;;;;3.88;0.57;;;31.10;41.90;;;;;;5010960;28;20025;-85
2022/07/27 11:48:48;;;;;;;5.40;0.90;;;31.00;40.50;;;;;;4991344;28;20030;-85
2022/07/27 11:51:15;;;;;;;4.07;0.88;;;30.90;41.60;;;;;;5007165;28;20041;-84
2022/07/27 11:53:41;;;;;;;2.55;0.73;;;30.80;41.50;;;;;;5007459;28;20037;-85
2022/07/27 11:56:07;;;;;;;4.47;0.85;;;31.00;40.00;;;;;;4992027;28;20026;-85
2022/07/27 11:58:32;;;;;;;2.92;0.98;;;30.70;40.00;;;;;;5003070;28;20118;-85
2022/07/27 12:00:58;;;;;;;4.30;0.80;;;30.60;40.20;;;;;;4988750;28;20516;-85
2022/07/27 12:03:24;;;;;;;2.42;1.00;;;30.80;40.60;;;;;;4990975;28;20033;-85
2022/07/27 12:05:50;;;;;;;2.75;0.50;;;30.80;39.30;;;;;;5012077;28;20049;-85
2022/07/27 12:08:16;;;;;;;3.22;0.60;;;30.90;38.90;;;;;;4990939;28;20034;-84
2022/07/27 12:11:00;;;;;;;1.40;0.68;;;31.00;40.20;;;;;;4993052;28;20026;-84
2022/07/27 12:13:35;;;;;;;2.70;0.80;;;31.20;40.60;;;;;;4992351;28;20061;-83
2022/07/27 12:16:00;;;;;;;2.80;0.65;;;31.40;40.60;;;;;;5010305;28;20038;-83
2022/07/27 12:18:27;;;;;;;3.30;1.00;;;31.70;40.30;;;;;;5007706;28;20045;-83
2022/07/27 12:20:55;;;;;;;3.25;1.05;;;31.80;39.20;;;;;;5007995;28;20034;-83
2022/07/27 12:23:27;;;;;;;4.97;2.00;;;31.60;39.90;;;;;;4999668;28;20045;-83
2022/07/27 12:25:53;;;;;;;2.08;0.80;;;31.70;39.10;;;;;;5025666;28;20069;-84
2022/07/27 12:28:24;;;;;;;2.50;1.00;;;31.60;39.60;;;;;;5012651;28;20116;-84
2022/07/27 12:30:50;;;;;;;6.43;1.33;;;31.30;38.90;;;;;;5006177;28;20033;-84
2022/07/27 12:33:29;;;;;;;2.15;0.80;;;31.20;39.90;;;;;;5004939;28;20061;-84
2022/07/27 12:35:55;;;;;;;2.65;1.20;;;31.00;40.00;;;;;;5005505;28;20030;-82
2022/07/27 12:38:20;;;;;;;3.75;0.95;;;31.20;41.00;;;;;;5007820;28;20555;-83
2022/07/27 12:40:48;;;;;;;2.83;0.90;;;31.40;40.70;;;;;;4994770;28;20083;-84
2022/07/27 12:43:18;;;;;;;5.63;1.23;;;31.70;39.80;;;;;;4979650;28;20045;-82
2022/07/27 12:45:44;;;;;;;5.22;0.80;;;32.00;39.10;;;;;;4990704;28;20033;-82
2022/07/27 12:48:18;;;;;;;2.45;0.88;;;32.20;39.90;;;;;;5006032;28;20036;-83